Time;durP1;ratioP1;P1;durP2;ratioP2;P2;SDS_P1;SDS_P2;PMS_P1;PMS_P2;Temp;Humidity;BMP_temperature;BMP_pressure;BME280_temperature;BME280_humidity;BME280_pressure;Samples;Min_cycle;Max_cycle;Signal;HPM_P1;HPM_P2
2024/03/22 00:01:53;;;;;;;228.60;63.38;;;;;;;;;;5011367;28;20578;-44
2024/03/22 00:04:19;;;;;;;231.57;67.50;;;;;;;;;;5011368;28;20173;-43
2024/03/22 00:06:46;;;;;;;229.23;65.63;;;;;;;;;;5011364;28;20633;-43
2024/03/22 00:09:12;;;;;;;230.20;64.82;;;;;;;;;;5010732;28;20923;-44
2024/03/22 00:11:39;;;;;;;231.20;67.68;;;;;;;;;;5010814;28;20203;-44
2024/03/22 00:14:05;;;;;;;232.80;66.20;;;;;;;;;;5011232;28;20168;-43
2024/03/22 00:16:31;;;;;;;236.80;72.40;;;;;;;;;;5010905;28;20698;-44
2024/03/22 00:18:57;;;;;;;232.30;68.03;;;;;;;;;;5011577;28;20477;-44
2024/03/22 00:21:24;;;;;;;231.43;67.30;;;;;;;;;;5011296;28;20416;-44
2024/03/22 00:23:50;;;;;;;229.82;64.55;;;;;;;;;;5011043;28;20185;-43
2024/03/22 00:26:16;;;;;;;230.10;64.78;;;;;;;;;;5010908;28;20204;-44
2024/03/22 00:28:42;;;;;;;233.40;69.68;;;;;;;;;;5008226;28;20172;-44
2024/03/22 00:31:09;;;;;;;231.80;66.40;;;;;;;;;;5010962;28;20652;-43
2024/03/22 00:33:35;;;;;;;233.80;70.82;;;;;;;;;;5010858;28;20599;-43
2024/03/22 00:36:01;;;;;;;230.50;66.20;;;;;;;;;;5010642;28;20210;-43
2024/03/22 00:38:27;;;;;;;230.60;66.60;;;;;;;;;;5010684;28;20235;-44
2024/03/22 00:40:53;;;;;;;231.25;68.55;;;;;;;;;;5010771;28;20268;-44
2024/03/22 00:43:20;;;;;;;229.90;65.57;;;;;;;;;;5010993;28;20681;-44
2024/03/22 00:45:46;;;;;;;229.35;63.83;;;;;;;;;;5010566;28;20828;-44
2024/03/22 00:48:12;;;;;;;236.93;73.67;;;;;;;;;;5011373;28;20169;-43
2024/03/22 00:50:38;;;;;;;234.27;69.80;;;;;;;;;;5010625;28;20429;-43
2024/03/22 00:53:05;;;;;;;231.63;67.17;;;;;;;;;;5010366;28;20677;-43
2024/03/22 00:55:31;;;;;;;233.07;69.22;;;;;;;;;;5010658;28;20403;-44
2024/03/22 00:57:57;;;;;;;229.27;66.13;;;;;;;;;;5010680;28;20581;-44
2024/03/22 01:00:23;;;;;;;235.97;70.17;;;;;;;;;;5010357;28;20417;-43
2024/03/22 01:02:50;;;;;;;233.27;69.57;;;;;;;;;;5010862;28;20406;-44
2024/03/22 01:05:16;;;;;;;234.65;72.30;;;;;;;;;;5010352;28;20227;-44
2024/03/22 01:07:42;;;;;;;230.65;65.72;;;;;;;;;;5003121;28;20578;-45
2024/03/22 01:10:08;;;;;;;231.70;66.77;;;;;;;;;;5010354;28;20178;-44
2024/03/22 01:12:34;;;;;;;233.87;68.07;;;;;;;;;;5010712;28;20436;-44
2024/03/22 01:15:00;;;;;;;233.20;70.40;;;;;;;;;;5010492;28;20408;-43
2024/03/22 01:17:26;;;;;;;234.27;67.93;;;;;;;;;;5010437;28;20432;-44
2024/03/22 01:19:52;;;;;;;228.63;64.97;;;;;;;;;;5010537;28;20706;-44
2024/03/22 01:22:19;;;;;;;232.88;70.13;;;;;;;;;;5013353;28;20441;-44
2024/03/22 01:24:45;;;;;;;232.57;68.60;;;;;;;;;;5014502;28;20231;-44
2024/03/22 01:27:11;;;;;;;232.73;68.32;;;;;;;;;;5013996;28;20205;-44
2024/03/22 01:29:37;;;;;;;232.00;66.88;;;;;;;;;;5014234;28;20541;-44
2024/03/22 01:32:03;;;;;;;232.98;68.10;;;;;;;;;;5014491;28;20202;-44
2024/03/22 01:34:29;;;;;;;232.63;70.55;;;;;;;;;;5014497;28;20187;-44
2024/03/22 01:36:55;;;;;;;232.15;67.82;;;;;;;;;;5013837;28;20197;-43
2024/03/22 01:39:22;;;;;;;233.53;68.93;;;;;;;;;;5014147;28;20227;-44
2024/03/22 01:41:48;;;;;;;234.82;71.63;;;;;;;;;;5014171;28;20459;-44
2024/03/22 01:44:14;;;;;;;233.95;69.43;;;;;;;;;;5013931;28;20684;-44
2024/03/22 01:46:41;;;;;;;234.13;69.60;;;;;;;;;;5013563;28;20204;-44
2024/03/22 01:49:08;;;;;;;233.13;68.22;;;;;;;;;;5013934;28;20408;-44
2024/03/22 01:51:34;;;;;;;235.70;72.20;;;;;;;;;;5013938;28;20245;-44
2024/03/22 01:54:01;;;;;;;235.20;70.97;;;;;;;;;;5014048;28;20178;-44
2024/03/22 01:56:28;;;;;;;234.80;70.22;;;;;;;;;;5013751;28;20427;-44
2024/03/22 01:58:54;;;;;;;234.38;70.30;;;;;;;;;;5013909;28;20279;-44
2024/03/22 02:01:20;;;;;;;235.45;70.22;;;;;;;;;;5013827;28;20178;-44
2024/03/22 02:03:46;;;;;;;233.50;68.77;;;;;;;;;;5013273;28;20313;-44
2024/03/22 02:06:12;;;;;;;230.30;65.43;;;;;;;;;;5012811;28;20475;-44
2024/03/22 02:08:40;;;;;;;233.37;69.07;;;;;;;;;;5012747;28;20478;-44
2024/03/22 02:11:06;;;;;;;231.48;66.63;;;;;;;;;;5013565;28;20994;-44
2024/03/22 02:13:32;;;;;;;234.97;71.37;;;;;;;;;;5013589;28;20247;-44
2024/03/22 02:15:58;;;;;;;235.37;72.97;;;;;;;;;;5013096;28;20947;-44
2024/03/22 02:18:24;;;;;;;233.73;68.00;;;;;;;;;;5013795;28;20931;-44
2024/03/22 02:20:50;;;;;;;232.40;69.70;;;;;;;;;;5013827;28;20994;-44
2024/03/22 02:23:16;;;;;;;231.50;65.77;;;;;;;;;;5013603;28;20907;-44
2024/03/22 02:25:41;;;;;;;233.10;69.20;;;;;;;;;;5012978;28;20550;-45
2024/03/22 02:28:07;;;;;;;231.63;68.47;;;;;;;;;;5013290;28;20451;-44
2024/03/22 02:30:33;;;;;;;234.03;69.37;;;;;;;;;;5013205;28;20459;-44
2024/03/22 02:32:59;;;;;;;233.37;68.90;;;;;;;;;;5012387;28;20411;-44
2024/03/22 02:35:25;;;;;;;233.43;69.73;;;;;;;;;;5012876;28;20443;-45
2024/03/22 02:37:51;;;;;;;232.43;68.17;;;;;;;;;;5012937;28;20433;-45
2024/03/22 02:40:17;;;;;;;232.97;69.27;;;;;;;;;;5013008;28;20843;-45
2024/03/22 02:42:43;;;;;;;228.53;64.60;;;;;;;;;;5013311;28;20775;-44
2024/03/22 02:45:09;;;;;;;234.07;70.70;;;;;;;;;;5012828;28;21007;-44
2024/03/22 02:47:35;;;;;;;234.43;69.95;;;;;;;;;;5012568;28;20469;-44
2024/03/22 02:50:01;;;;;;;234.30;70.27;;;;;;;;;;5012908;28;20180;-43
2024/03/22 02:52:27;;;;;;;232.83;67.87;;;;;;;;;;5012946;28;20415;-45
2024/03/22 02:54:53;;;;;;;235.87;72.90;;;;;;;;;;5012723;28;20505;-45
2024/03/22 02:57:19;;;;;;;232.73;68.07;;;;;;;;;;5012364;28;20435;-44
2024/03/22 02:59:45;;;;;;;231.80;67.35;;;;;;;;;;5012752;28;20451;-44
2024/03/22 03:02:11;;;;;;;234.80;70.53;;;;;;;;;;5012675;28;20596;-45
2024/03/22 03:04:37;;;;;;;233.27;69.57;;;;;;;;;;5012826;28;20762;-44
2024/03/22 03:07:03;;;;;;;234.10;72.10;;;;;;;;;;5012263;28;20469;-43
2024/03/22 03:09:29;;;;;;;231.50;66.05;;;;;;;;;;5012539;28;20646;-44
2024/03/22 03:11:55;;;;;;;237.10;74.27;;;;;;;;;;5011769;28;20189;-44
2024/03/22 03:14:21;;;;;;;228.80;65.37;;;;;;;;;;5012254;28;20443;-44
2024/03/22 03:16:47;;;;;;;230.70;65.47;;;;;;;;;;5011791;28;20433;-44
2024/03/22 03:19:13;;;;;;;232.73;69.87;;;;;;;;;;5012284;28;20424;-45
2024/03/22 03:21:39;;;;;;;231.57;69.57;;;;;;;;;;5012384;28;20984;-43
2024/03/22 03:24:05;;;;;;;232.97;67.17;;;;;;;;;;5012289;28;20994;-44
2024/03/22 03:26:31;;;;;;;232.70;67.88;;;;;;;;;;5011705;28;20467;-44
2024/03/22 03:28:57;;;;;;;235.67;72.03;;;;;;;;;;5012209;28;20280;-44
2024/03/22 03:31:23;;;;;;;237.70;72.47;;;;;;;;;;5012095;28;20417;-44
2024/03/22 03:33:49;;;;;;;231.97;67.67;;;;;;;;;;5012067;28;20410;-44
2024/03/22 03:36:15;;;;;;;231.77;67.33;;;;;;;;;;5011893;28;20437;-45
2024/03/22 03:38:41;;;;;;;231.73;67.87;;;;;;;;;;5011862;28;20421;-44
2024/03/22 03:41:07;;;;;;;230.52;67.03;;;;;;;;;;5012039;28;20419;-44
2024/03/22 03:43:33;;;;;;;230.27;65.30;;;;;;;;;;5011872;28;20182;-44
2024/03/22 03:45:59;;;;;;;233.23;67.97;;;;;;;;;;5010369;28;20460;-44
2024/03/22 03:48:25;;;;;;;234.80;71.72;;;;;;;;;;5011806;28;20408;-44
2024/03/22 03:50:55;;;;;;;233.60;68.60;;;;;;;;;;5008476;28;20229;-44
2024/03/22 03:53:24;;;;;;;232.98;68.85;;;;;;;;;;5008690;28;20895;-45
2024/03/22 03:55:49;;;;;;;233.90;68.32;;;;;;;;;;5011232;28;20165;-44
2024/03/22 03:58:17;;;;;;;231.63;66.87;;;;;;;;;;5011300;28;20449;-44
2024/03/22 04:00:44;;;;;;;232.57;68.53;;;;;;;;;;5009895;28;20409;-44
2024/03/22 04:03:10;;;;;;;231.38;66.57;;;;;;;;;;5011407;28;20171;-44
2024/03/22 04:05:36;;;;;;;231.90;65.53;;;;;;;;;;5011058;28;20658;-44
2024/03/22 04:08:02;;;;;;;231.87;68.23;;;;;;;;;;5011289;28;20963;-43
2024/03/22 04:10:28;;;;;;;235.57;71.25;;;;;;;;;;5011253;28;20415;-44
2024/03/22 04:12:54;;;;;;;234.52;71.07;;;;;;;;;;5011134;28;20185;-44
2024/03/22 04:15:20;;;;;;;237.80;70.97;;;;;;;;;;5011010;28;20179;-44
2024/03/22 04:17:46;;;;;;;229.83;66.33;;;;;;;;;;5011144;28;20436;-44
2024/03/22 04:20:12;;;;;;;230.27;66.40;;;;;;;;;;5011136;28;20423;-44
2024/03/22 04:22:38;;;;;;;233.40;69.47;;;;;;;;;;5011040;28;20945;-44
2024/03/22 04:25:04;;;;;;;230.63;67.15;;;;;;;;;;5011394;28;20181;-44
2024/03/22 04:27:30;;;;;;;232.90;68.55;;;;;;;;;;5011394;28;20207;-43
2024/03/22 04:29:56;;;;;;;231.70;65.97;;;;;;;;;;5010926;28;20180;-44
2024/03/22 04:32:22;;;;;;;233.10;70.30;;;;;;;;;;5011266;28;21080;-44
2024/03/22 04:34:48;;;;;;;231.87;68.47;;;;;;;;;;5010951;28;20412;-44
2024/03/22 04:37:14;;;;;;;233.47;69.17;;;;;;;;;;5010667;28;20449;-44
2024/03/22 04:39:40;;;;;;;230.37;66.47;;;;;;;;;;5010917;28;20419;-44
2024/03/22 04:42:07;;;;;;;231.70;67.05;;;;;;;;;;5010793;28;20423;-44
2024/03/22 04:44:33;;;;;;;235.30;71.40;;;;;;;;;;5010890;28;20176;-44
2024/03/22 04:46:59;;;;;;;230.88;68.40;;;;;;;;;;5010285;28;20293;-43
2024/03/22 04:49:25;;;;;;;230.77;65.63;;;;;;;;;;5010702;28;20621;-44
2024/03/22 04:51:51;;;;;;;234.40;69.80;;;;;;;;;;5010614;28;20408;-44
2024/03/22 04:54:17;;;;;;;232.50;66.50;;;;;;;;;;5011212;28;20416;-44
2024/03/22 04:56:42;;;;;;;231.43;65.90;;;;;;;;;;5009841;28;20434;-44
2024/03/22 04:59:08;;;;;;;231.33;67.50;;;;;;;;;;5015030;28;20473;-44
2024/03/22 05:01:34;;;;;;;234.43;70.93;;;;;;;;;;5014785;28;20415;-44
2024/03/22 05:04:00;;;;;;;229.80;65.70;;;;;;;;;;5014663;28;20417;-44
2024/03/22 05:06:26;;;;;;;231.50;66.03;;;;;;;;;;5014359;28;20462;-44
2024/03/22 05:08:52;;;;;;;231.53;66.43;;;;;;;;;;5014450;28;20967;-45
2024/03/22 05:11:18;;;;;;;228.60;64.00;;;;;;;;;;5013966;28;20793;-43
2024/03/22 05:13:44;;;;;;;232.40;69.50;;;;;;;;;;5014631;28;20785;-44
2024/03/22 05:16:11;;;;;;;231.73;67.77;;;;;;;;;;5014112;28;20803;-44
2024/03/22 05:18:37;;;;;;;229.07;66.00;;;;;;;;;;5014239;28;20411;-44
2024/03/22 05:21:03;;;;;;;235.63;72.77;;;;;;;;;;5014326;28;20191;-44
2024/03/22 05:23:29;;;;;;;235.70;73.22;;;;;;;;;;5014266;28;20423;-44
2024/03/22 05:25:55;;;;;;;235.07;69.90;;;;;;;;;;5013734;28;20204;-44
2024/03/22 05:28:21;;;;;;;235.33;72.40;;;;;;;;;;5014256;28;20408;-44
2024/03/22 05:30:47;;;;;;;234.80;72.88;;;;;;;;;;5014379;28;20404;-44
2024/03/22 05:33:13;;;;;;;231.85;68.35;;;;;;;;;;5014204;28;20200;-44
2024/03/22 05:35:41;;;;;;;234.25;72.53;;;;;;;;;;5013710;28;20183;-44
2024/03/22 05:38:07;;;;;;;231.63;68.80;;;;;;;;;;5014013;28;20261;-44
2024/03/22 05:40:32;;;;;;;235.50;73.30;;;;;;;;;;5013914;28;20384;-44
2024/03/22 05:42:58;;;;;;;233.23;70.13;;;;;;;;;;5013849;28;20412;-44
2024/03/22 05:45:24;;;;;;;230.77;66.73;;;;;;;;;;5013627;28;20418;-44
2024/03/22 05:47:50;;;;;;;229.93;64.77;;;;;;;;;;5013974;28;20459;-44
2024/03/22 05:50:16;;;;;;;229.40;66.33;;;;;;;;;;5013909;28;20409;-44
2024/03/22 05:52:42;;;;;;;232.70;69.13;;;;;;;;;;5011521;28;20403;-44
2024/03/22 05:55:08;;;;;;;235.27;71.27;;;;;;;;;;5013786;28;20406;-44
2024/03/22 05:57:34;;;;;;;232.80;68.97;;;;;;;;;;5013599;28;20419;-44
2024/03/22 06:00:00;;;;;;;230.00;66.10;;;;;;;;;;5014117;28;20495;-44
2024/03/22 06:02:26;;;;;;;235.07;70.73;;;;;;;;;;5014004;28;20410;-44
2024/03/22 06:04:52;;;;;;;232.97;69.27;;;;;;;;;;5013774;28;20438;-44
2024/03/22 06:07:18;;;;;;;232.80;70.13;;;;;;;;;;5012280;28;20857;-45
2024/03/22 06:09:47;;;;;;;233.57;71.00;;;;;;;;;;5013237;28;20408;-44
2024/03/22 06:12:14;;;;;;;234.52;73.05;;;;;;;;;;5013588;28;20315;-44
2024/03/22 06:14:40;;;;;;;232.40;71.18;;;;;;;;;;5013542;28;20235;-44
2024/03/22 06:17:06;;;;;;;236.85;74.30;;;;;;;;;;5013635;28;20196;-44
2024/03/22 06:19:32;;;;;;;235.30;72.40;;;;;;;;;;5013471;28;20208;-44
2024/03/22 06:21:58;;;;;;;235.38;73.13;;;;;;;;;;5013398;28;20411;-44
2024/03/22 06:24:24;;;;;;;233.37;69.87;;;;;;;;;;5013318;28;20183;-44
2024/03/22 06:26:50;;;;;;;234.97;72.17;;;;;;;;;;5012893;28;20551;-44
2024/03/22 06:29:16;;;;;;;232.33;69.77;;;;;;;;;;5013336;28;20435;-44
2024/03/22 06:31:43;;;;;;;234.95;70.65;;;;;;;;;;5012591;28;20438;-44
2024/03/22 06:34:09;;;;;;;236.40;74.10;;;;;;;;;;5012787;28;20263;-44
2024/03/22 06:36:35;;;;;;;233.13;69.53;;;;;;;;;;5011867;28;20834;-44
2024/03/22 06:39:02;;;;;;;236.63;74.10;;;;;;;;;;5012705;28;20425;-44
2024/03/22 06:41:28;;;;;;;236.47;73.33;;;;;;;;;;5012421;28;20413;-44
2024/03/22 06:43:54;;;;;;;238.73;75.47;;;;;;;;;;5012448;28;21018;-44
2024/03/22 06:46:20;;;;;;;238.13;74.50;;;;;;;;;;5011385;28;21125;-44
2024/03/22 06:48:46;;;;;;;240.57;78.60;;;;;;;;;;5013771;28;20174;-44
2024/03/22 06:51:12;;;;;;;233.63;70.23;;;;;;;;;;5012604;28;20417;-44
2024/03/22 06:53:38;;;;;;;236.07;73.65;;;;;;;;;;5012578;28;20416;-44
2024/03/22 06:56:05;;;;;;;238.93;77.57;;;;;;;;;;5012622;28;20686;-44
2024/03/22 06:58:31;;;;;;;235.57;72.70;;;;;;;;;;5012626;28;20420;-44
2024/03/22 07:00:57;;;;;;;239.03;75.87;;;;;;;;;;5012719;28;20257;-44
2024/03/22 07:03:22;;;;;;;233.10;69.70;;;;;;;;;;5012788;28;20465;-44
2024/03/22 07:05:49;;;;;;;236.37;73.60;;;;;;;;;;5011926;28;20512;-44
2024/03/22 07:08:14;;;;;;;237.10;75.03;;;;;;;;;;5012309;28;20418;-44
2024/03/22 07:10:40;;;;;;;237.13;74.27;;;;;;;;;;5011967;28;20417;-44
2024/03/22 07:13:07;;;;;;;235.83;72.80;;;;;;;;;;5012242;28;20407;-44
2024/03/22 07:15:33;;;;;;;240.67;79.73;;;;;;;;;;5012001;28;20414;-44
2024/03/22 07:17:59;;;;;;;240.17;79.17;;;;;;;;;;5012566;28;20433;-44
2024/03/22 07:20:26;;;;;;;237.23;74.73;;;;;;;;;;5011667;28;20782;-44
2024/03/22 07:22:53;;;;;;;235.00;70.80;;;;;;;;;;5012167;28;20414;-44
2024/03/22 07:25:19;;;;;;;236.17;73.67;;;;;;;;;;5011855;28;20518;-43
2024/03/22 07:27:46;;;;;;;236.67;72.03;;;;;;;;;;5012156;28;20917;-44
2024/03/22 07:30:12;;;;;;;238.67;76.03;;;;;;;;;;5012192;28;20488;-44
2024/03/22 07:32:38;;;;;;;238.43;74.93;;;;;;;;;;5011952;28;20415;-44
2024/03/22 07:35:04;;;;;;;238.77;75.40;;;;;;;;;;5011650;28;20471;-44
2024/03/22 07:37:30;;;;;;;241.13;77.93;;;;;;;;;;5011771;28;21025;-44
2024/03/22 07:39:56;;;;;;;244.07;82.60;;;;;;;;;;5012037;28;20490;-44
2024/03/22 07:42:22;;;;;;;241.10;78.30;;;;;;;;;;5011711;28;20442;-44
2024/03/22 07:44:48;;;;;;;241.40;76.27;;;;;;;;;;5011857;28;20497;-44
2024/03/22 07:47:14;;;;;;;242.17;79.47;;;;;;;;;;5011513;28;20904;-44
2024/03/22 07:49:40;;;;;;;245.53;81.83;;;;;;;;;;5011419;28;20405;-44
2024/03/22 07:52:06;;;;;;;244.27;82.07;;;;;;;;;;5011951;28;20406;-44
2024/03/22 07:54:32;;;;;;;243.87;82.43;;;;;;;;;;5011715;28;20779;-44
2024/03/22 07:56:58;;;;;;;241.80;78.80;;;;;;;;;;5011463;28;20431;-44
2024/03/22 07:59:24;;;;;;;245.43;78.77;;;;;;;;;;5011536;28;20458;-44
2024/03/22 08:01:50;;;;;;;240.20;74.47;;;;;;;;;;5011677;28;20426;-44
2024/03/22 08:04:16;;;;;;;241.47;78.27;;;;;;;;;;5011285;28;20420;-44
2024/03/22 08:06:42;;;;;;;241.97;77.60;;;;;;;;;;5010845;28;20482;-44
2024/03/22 08:09:08;;;;;;;241.80;81.03;;;;;;;;;;5011648;28;20402;-44
2024/03/22 08:11:34;;;;;;;240.17;77.67;;;;;;;;;;5011446;28;20419;-44
2024/03/22 08:14:03;;;;;;;241.87;78.67;;;;;;;;;;5011539;28;20418;-44
2024/03/22 08:16:32;;;;;;;241.20;77.47;;;;;;;;;;5010948;28;20443;-44
2024/03/22 08:18:58;;;;;;;241.67;78.60;;;;;;;;;;5011079;28;20414;-44
2024/03/22 08:21:24;;;;;;;238.10;76.83;;;;;;;;;;5011208;28;20473;-44
2024/03/22 08:23:51;;;;;;;237.97;76.43;;;;;;;;;;5011244;28;20423;-45
2024/03/22 08:26:18;;;;;;;240.27;78.20;;;;;;;;;;5011146;28;20860;-44
2024/03/22 08:28:44;;;;;;;239.80;76.43;;;;;;;;;;5011108;28;20414;-44
2024/03/22 08:31:10;;;;;;;240.17;79.70;;;;;;;;;;5010471;28;20407;-44
2024/03/22 08:33:36;;;;;;;242.13;79.97;;;;;;;;;;5010786;28;20788;-44
2024/03/22 08:36:02;;;;;;;238.37;76.37;;;;;;;;;;5010724;28;20477;-44
2024/03/22 08:38:28;;;;;;;251.33;87.87;;;;;;;;;;5011035;28;20446;-44
2024/03/22 08:40:54;;;;;;;242.27;79.77;;;;;;;;;;5011058;28;20417;-44
2024/03/22 08:43:22;;;;;;;245.50;83.07;;;;;;;;;;5011290;28;20408;-44
2024/03/22 08:45:48;;;;;;;243.63;82.90;;;;;;;;;;5010445;28;20555;-44
2024/03/22 08:48:14;;;;;;;242.87;81.30;;;;;;;;;;5010857;28;20495;-44
2024/03/22 08:50:42;;;;;;;240.97;80.87;;;;;;;;;;5010779;28;20420;-44
2024/03/22 08:53:08;;;;;;;240.27;79.23;;;;;;;;;;5011173;28;20537;-44
2024/03/22 08:55:34;;;;;;;245.13;86.37;;;;;;;;;;5010883;28;20982;-44
2024/03/22 08:58:00;;;;;;;243.70;81.73;;;;;;;;;;5010757;28;20452;-44
2024/03/22 09:00:26;;;;;;;242.07;80.80;;;;;;;;;;5010690;28;20419;-44
2024/03/22 09:02:52;;;;;;;244.17;83.60;;;;;;;;;;5011242;28;20497;-44
2024/03/22 09:05:18;;;;;;;244.17;83.77;;;;;;;;;;5010419;28;20411;-45
2024/03/22 09:07:44;;;;;;;240.40;80.63;;;;;;;;;;5010916;28;20837;-44
2024/03/22 09:10:11;;;;;;;239.40;81.03;;;;;;;;;;5010873;28;20421;-44
2024/03/22 09:12:37;;;;;;;242.50;82.07;;;;;;;;;;5009971;28;20427;-44
2024/03/22 09:15:03;;;;;;;242.57;80.73;;;;;;;;;;5010170;28;20415;-45
2024/03/22 09:17:29;;;;;;;241.43;79.47;;;;;;;;;;5010270;28;20493;-44
2024/03/22 09:19:55;;;;;;;243.93;83.47;;;;;;;;;;5010793;28;20416;-44
2024/03/22 09:22:22;;;;;;;243.63;81.73;;;;;;;;;;5010634;28;20955;-44
2024/03/22 09:24:47;;;;;;;244.77;84.03;;;;;;;;;;5010829;28;20414;-44
2024/03/22 09:27:13;;;;;;;246.53;87.33;;;;;;;;;;5010427;28;20562;-44
2024/03/22 09:29:39;;;;;;;247.37;89.87;;;;;;;;;;5010377;28;20418;-44
2024/03/22 09:32:05;;;;;;;244.37;82.77;;;;;;;;;;5010541;28;20418;-44
2024/03/22 09:34:31;;;;;;;242.60;81.37;;;;;;;;;;5010462;28;20424;-44
2024/03/22 09:36:58;;;;;;;245.57;85.37;;;;;;;;;;5008883;28;20517;-45
2024/03/22 09:39:24;;;;;;;247.17;87.63;;;;;;;;;;5010404;28;20426;-44
2024/03/22 09:41:51;;;;;;;243.93;83.67;;;;;;;;;;5011303;28;20473;-44
2024/03/22 09:44:19;;;;;;;248.33;87.23;;;;;;;;;;5013786;28;20409;-44
2024/03/22 09:46:47;;;;;;;249.23;89.33;;;;;;;;;;5013746;28;20584;-44
2024/03/22 09:49:13;;;;;;;248.40;90.13;;;;;;;;;;5014192;28;20414;-44
2024/03/22 09:51:42;;;;;;;247.23;89.23;;;;;;;;;;5013998;28;20445;-44
2024/03/22 09:54:09;;;;;;;245.87;88.43;;;;;;;;;;5013606;28;20898;-45
2024/03/22 09:56:36;;;;;;;243.00;83.03;;;;;;;;;;5013350;28;20466;-44
2024/03/22 09:59:03;;;;;;;247.57;90.83;;;;;;;;;;5013679;28;20470;-45
2024/03/22 10:01:29;;;;;;;249.73;93.33;;;;;;;;;;5013665;28;20414;-44
2024/03/22 10:03:55;;;;;;;241.80;81.73;;;;;;;;;;5013745;28;20409;-44
2024/03/22 10:06:21;;;;;;;247.97;90.27;;;;;;;;;;5013237;28;20543;-45
2024/03/22 10:08:48;;;;;;;243.47;83.97;;;;;;;;;;5013677;28;20918;-44
2024/03/22 10:11:14;;;;;;;243.53;83.90;;;;;;;;;;5013719;28;20865;-44
2024/03/22 10:13:40;;;;;;;246.53;84.83;;;;;;;;;;5013507;28;20492;-44
2024/03/22 10:16:07;;;;;;;249.10;87.73;;;;;;;;;;5012692;28;20931;-45
2024/03/22 10:18:34;;;;;;;247.07;86.90;;;;;;;;;;5013131;28;20443;-44
2024/03/22 10:21:04;;;;;;;243.87;85.87;;;;;;;;;;5013312;28;20420;-44
2024/03/22 10:23:30;;;;;;;245.93;85.93;;;;;;;;;;5013246;28;20437;-44
2024/03/22 10:25:58;;;;;;;251.03;93.03;;;;;;;;;;5013565;28;20969;-44
2024/03/22 10:28:24;;;;;;;249.30;90.87;;;;;;;;;;5014054;28;20829;-44
2024/03/22 10:30:52;;;;;;;250.13;90.47;;;;;;;;;;5011946;28;20464;-44
2024/03/22 10:33:19;;;;;;;249.57;90.10;;;;;;;;;;5011552;28;20425;-44
2024/03/22 10:35:45;;;;;;;244.03;85.77;;;;;;;;;;5012101;28;20419;-44
2024/03/22 10:38:12;;;;;;;244.63;88.53;;;;;;;;;;5012829;28;20792;-44
2024/03/22 10:40:40;;;;;;;247.77;91.10;;;;;;;;;;5011584;28;20786;-44
2024/03/22 10:43:06;;;;;;;245.87;90.43;;;;;;;;;;5013133;28;20807;-44
2024/03/22 10:45:33;;;;;;;246.67;88.83;;;;;;;;;;5012228;28;20434;-44
2024/03/22 10:48:03;;;;;;;246.60;87.57;;;;;;;;;;5012239;28;20433;-44
2024/03/22 10:50:29;;;;;;;246.97;88.30;;;;;;;;;;5012925;28;20416;-44
2024/03/22 10:53:00;;;;;;;245.97;87.27;;;;;;;;;;5012690;28;20421;-44
2024/03/22 10:55:32;;;;;;;245.03;86.37;;;;;;;;;;5012104;28;20979;-44
2024/03/22 10:57:59;;;;;;;243.97;85.67;;;;;;;;;;5012790;28;20436;-44
2024/03/22 11:00:28;;;;;;;242.73;83.50;;;;;;;;;;5013051;28;20428;-44
2024/03/22 11:02:54;;;;;;;248.37;90.77;;;;;;;;;;5012317;28;21022;-44
2024/03/22 11:05:20;;;;;;;248.67;91.93;;;;;;;;;;5010165;28;20716;-44
2024/03/22 11:07:46;;;;;;;244.43;87.53;;;;;;;;;;5012255;28;20459;-45
2024/03/22 11:10:13;;;;;;;246.43;89.07;;;;;;;;;;5012168;28;20428;-44
2024/03/22 11:12:42;;;;;;;245.57;87.30;;;;;;;;;;5011462;28;20435;-44
2024/03/22 11:15:12;;;;;;;250.47;89.87;;;;;;;;;;5011410;28;20415;-44
2024/03/22 11:17:38;;;;;;;248.03;91.00;;;;;;;;;;5011720;28;20498;-44
2024/03/22 11:20:05;;;;;;;244.23;87.17;;;;;;;;;;5012080;28;20457;-44
2024/03/22 11:22:31;;;;;;;253.97;97.17;;;;;;;;;;5011767;28;20830;-44
2024/03/22 11:24:57;;;;;;;249.10;89.90;;;;;;;;;;5011358;28;20426;-44
2024/03/22 11:27:23;;;;;;;247.73;90.17;;;;;;;;;;5010116;28;20468;-44
2024/03/22 11:29:51;;;;;;;245.60;88.50;;;;;;;;;;5015999;28;20477;-44
2024/03/22 11:32:17;;;;;;;242.27;84.93;;;;;;;;;;5012337;28;20408;-45
2024/03/22 11:34:44;;;;;;;250.87;92.07;;;;;;;;;;5008905;28;20400;-44
2024/03/22 11:37:10;;;;;;;251.43;93.80;;;;;;;;;;5010215;28;20830;-45
2024/03/22 11:39:39;;;;;;;248.53;92.87;;;;;;;;;;5011234;28;20429;-44
2024/03/22 11:42:06;;;;;;;252.73;95.63;;;;;;;;;;5010977;28;20464;-44
2024/03/22 11:44:34;;;;;;;248.47;90.70;;;;;;;;;;5011073;28;20414;-44
2024/03/22 11:47:00;;;;;;;248.00;93.63;;;;;;;;;;5011654;28;20453;-44
2024/03/22 11:49:26;;;;;;;247.17;89.43;;;;;;;;;;5011680;28;20422;-44
2024/03/22 11:51:52;;;;;;;245.67;90.63;;;;;;;;;;5011980;28;20778;-44
2024/03/22 11:54:21;;;;;;;243.10;85.60;;;;;;;;;;5011901;28;20808;-44
2024/03/22 11:56:47;;;;;;;247.63;90.23;;;;;;;;;;5011347;28;20448;-44
2024/03/22 11:59:13;;;;;;;246.33;91.23;;;;;;;;;;5011640;28;20420;-44
2024/03/22 12:01:41;;;;;;;248.87;90.93;;;;;;;;;;5011422;28;20968;-44
2024/03/22 12:04:08;;;;;;;241.30;82.47;;;;;;;;;;5011681;28;20451;-44
2024/03/22 12:06:37;;;;;;;243.47;84.93;;;;;;;;;;5010346;28;20468;-44
2024/03/22 12:09:03;;;;;;;242.77;82.73;;;;;;;;;;5011358;28;20423;-44
2024/03/22 12:11:31;;;;;;;246.97;87.83;;;;;;;;;;5011787;28;20464;-44
2024/03/22 12:13:57;;;;;;;247.37;86.87;;;;;;;;;;5011535;28;20430;-44
2024/03/22 12:16:23;;;;;;;244.17;86.70;;;;;;;;;;5011250;28;20871;-44
2024/03/22 12:18:48;;;;;;;242.43;82.80;;;;;;;;;;5011048;28;20762;-44
2024/03/22 12:21:14;;;;;;;244.53;83.73;;;;;;;;;;5011481;28;20765;-44
2024/03/22 12:23:40;;;;;;;248.60;88.50;;;;;;;;;;5011710;28;20782;-44
2024/03/22 12:26:06;;;;;;;245.87;84.93;;;;;;;;;;5011115;28;20925;-45
2024/03/22 12:28:32;;;;;;;244.43;84.77;;;;;;;;;;5011312;28;20776;-45
2024/03/22 12:30:58;;;;;;;247.60;86.87;;;;;;;;;;5011361;28;20911;-44
2024/03/22 12:33:24;;;;;;;239.53;79.73;;;;;;;;;;5011612;28;20404;-44
2024/03/22 12:35:50;;;;;;;245.10;86.37;;;;;;;;;;5011109;28;20900;-44
2024/03/22 12:38:17;;;;;;;244.17;85.50;;;;;;;;;;5011548;28;20922;-44
2024/03/22 12:40:43;;;;;;;243.37;81.53;;;;;;;;;;5003269;28;20412;-44
2024/03/22 12:43:11;;;;;;;242.20;82.87;;;;;;;;;;5011156;28;20972;-44
2024/03/22 12:45:37;;;;;;;242.57;82.10;;;;;;;;;;5010797;28;20416;-44
2024/03/22 12:48:04;;;;;;;241.47;79.77;;;;;;;;;;5011097;28;20914;-44
2024/03/22 12:50:30;;;;;;;243.87;81.93;;;;;;;;;;5011185;28;20412;-44
2024/03/22 12:52:56;;;;;;;239.70;80.70;;;;;;;;;;5009717;28;20473;-44
2024/03/22 12:55:22;;;;;;;244.73;83.07;;;;;;;;;;5010957;28;20440;-44
2024/03/22 12:57:48;;;;;;;243.67;80.90;;;;;;;;;;5010907;28;21025;-44
2024/03/22 13:00:18;;;;;;;236.50;75.27;;;;;;;;;;5011033;28;20443;-44
2024/03/22 13:02:44;;;;;;;243.63;81.27;;;;;;;;;;5009942;28;20403;-43
2024/03/22 13:05:10;;;;;;;248.73;85.37;;;;;;;;;;5009857;28;20808;-44
2024/03/22 13:07:37;;;;;;;244.17;83.97;;;;;;;;;;5010468;28;20501;-43
2024/03/22 13:10:03;;;;;;;243.03;81.53;;;;;;;;;;5009915;28;20412;-44
2024/03/22 13:12:34;;;;;;;245.33;83.23;;;;;;;;;;5008538;28;20474;-43
2024/03/22 13:15:00;;;;;;;239.57;78.40;;;;;;;;;;5010858;28;20411;-44
2024/03/22 13:17:26;;;;;;;241.87;82.57;;;;;;;;;;5011945;28;20435;-43
2024/03/22 13:19:52;;;;;;;241.07;79.27;;;;;;;;;;5015249;28;20418;-44
2024/03/22 13:22:18;;;;;;;246.37;84.90;;;;;;;;;;5014650;28;20438;-44
2024/03/22 13:24:47;;;;;;;242.03;82.43;;;;;;;;;;5014647;28;20411;-43
2024/03/22 13:27:13;;;;;;;239.47;79.57;;;;;;;;;;5014168;28;20561;-44
2024/03/22 13:29:40;;;;;;;239.50;78.23;;;;;;;;;;5014596;28;20438;-44
2024/03/22 13:32:07;;;;;;;236.10;74.53;;;;;;;;;;5014588;28;20407;-43
2024/03/22 13:34:34;;;;;;;239.43;77.57;;;;;;;;;;5014585;28;20407;-44
2024/03/22 13:37:00;;;;;;;233.33;71.70;;;;;;;;;;5014155;28;20458;-44
2024/03/22 13:39:26;;;;;;;241.60;81.50;;;;;;;;;;5014562;28;21042;-45
2024/03/22 13:41:52;;;;;;;240.87;78.23;;;;;;;;;;5014261;28;20899;-44
2024/03/22 13:44:18;;;;;;;236.67;75.37;;;;;;;;;;5014539;28;20894;-43
2024/03/22 13:46:44;;;;;;;239.83;77.20;;;;;;;;;;5013902;28;20470;-44
2024/03/22 13:49:15;;;;;;;240.17;78.17;;;;;;;;;;5014332;28;20411;-44
2024/03/22 13:51:41;;;;;;;236.50;73.87;;;;;;;;;;5014242;28;20498;-44
2024/03/22 13:54:07;;;;;;;238.20;77.17;;;;;;;;;;5014195;28;20407;-44
2024/03/22 13:56:33;;;;;;;236.57;72.37;;;;;;;;;;5013658;28;20997;-44
2024/03/22 13:58:59;;;;;;;237.17;74.67;;;;;;;;;;5014100;28;20414;-44